Time;durP1;ratioP1;P1;durP2;ratioP2;P2;SDS_P1;SDS_P2;PMS_P1;PMS_P2;Temp;Humidity;BMP_temperature;BMP_pressure;BME280_temperature;BME280_humidity;BME280_pressure;Samples;Min_cycle;Max_cycle;Signal;HPM_P1;HPM_P2
2023/09/19 00:00:25;;;;;;;7.63;1.33;;;17.70;99.90;;;;;;5029190;28;20252;-57
2023/09/19 00:02:53;;;;;;;3.45;1.50;;;17.70;99.90;;;;;;5026534;28;20300;-56
2023/09/19 00:05:23;;;;;;;4.75;1.38;;;17.70;99.90;;;;;;5027743;28;20236;-58
2023/09/19 00:07:54;;;;;;;2.58;1.20;;;17.70;99.90;;;;;;5020603;28;20207;-57
2023/09/19 00:10:23;;;;;;;3.75;1.48;;;17.70;99.90;;;;;;5019479;28;20222;-58
2023/09/19 00:12:55;;;;;;;4.32;1.38;;;17.70;99.90;;;;;;5019704;28;20235;-56
2023/09/19 00:15:23;;;;;;;4.32;1.50;;;17.80;99.90;;;;;;5022531;28;20260;-57
2023/09/19 00:17:53;;;;;;;2.15;1.30;;;17.80;99.90;;;;;;5022479;28;20297;-57
2023/09/19 00:20:22;;;;;;;5.55;1.50;;;17.80;99.90;;;;;;5020904;28;20242;-56
2023/09/19 00:22:51;;;;;;;2.65;1.30;;;17.80;99.90;;;;;;5019686;28;20203;-56
2023/09/19 00:25:19;;;;;;;2.58;1.40;;;17.90;99.90;;;;;;5021910;28;20211;-56
2023/09/19 00:27:49;;;;;;;6.30;1.27;;;17.90;99.90;;;;;;5022642;28;20206;-57
2023/09/19 00:30:21;;;;;;;1.90;1.20;;;17.80;99.90;;;;;;5021687;28;20826;-57
2023/09/19 00:32:49;;;;;;;5.90;1.40;;;17.90;99.90;;;;;;5028861;28;20265;-56
2023/09/19 00:35:17;;;;;;;4.43;1.48;;;17.80;99.90;;;;;;5026625;28;20743;-57
2023/09/19 00:37:45;;;;;;;4.38;1.27;;;17.80;99.90;;;;;;5026091;28;20202;-57
2023/09/19 00:40:15;;;;;;;6.45;1.40;;;17.80;99.90;;;;;;5024862;28;20261;-57
2023/09/19 00:42:43;;;;;;;1.50;1.40;;;17.80;99.90;;;;;;5023162;28;20203;-57
2023/09/19 00:45:12;;;;;;;3.28;1.38;;;17.80;99.90;;;;;;5024145;28;20247;-57
2023/09/19 00:47:41;;;;;;;2.38;1.48;;;17.70;99.90;;;;;;5025962;28;20198;-57
2023/09/19 00:50:10;;;;;;;3.63;1.23;;;17.70;99.90;;;;;;5025482;28;20230;-56
2023/09/19 00:52:39;;;;;;;3.88;1.80;;;17.70;99.90;;;;;;5022836;28;20207;-58
2023/09/19 00:55:07;;;;;;;3.90;1.23;;;17.70;99.90;;;;;;5023669;28;20218;-58
2023/09/19 00:57:38;;;;;;;2.47;1.60;;;17.70;99.90;;;;;;5027512;28;20207;-57
2023/09/19 01:00:07;;;;;;;7.15;1.88;;;17.70;99.90;;;;;;5026902;28;20755;-57
2023/09/19 01:02:35;;;;;;;2.72;1.40;;;17.80;99.90;;;;;;5016939;28;20238;-57
2023/09/19 01:05:05;;;;;;;1.48;1.25;;;17.80;99.90;;;;;;5033787;28;20593;-58
2023/09/19 01:07:34;;;;;;;3.03;1.23;;;17.70;99.90;;;;;;5026891;28;20270;-56
2023/09/19 01:10:05;;;;;;;6.50;1.70;;;17.70;99.90;;;;;;5034025;28;20222;-56
2023/09/19 01:12:40;;;;;;;3.80;1.17;;;17.70;99.90;;;;;;5026268;28;20198;-58
2023/09/19 01:15:12;;;;;;;2.95;1.67;;;17.70;99.90;;;;;;5026015;28;20293;-56
2023/09/19 01:17:44;;;;;;;3.42;1.45;;;17.70;99.90;;;;;;5033218;28;20245;-56
2023/09/19 01:20:18;;;;;;;4.60;1.42;;;17.70;99.90;;;;;;5028216;28;20238;-56
2023/09/19 01:22:52;;;;;;;3.08;1.52;;;17.70;99.90;;;;;;5022569;28;20241;-56
2023/09/19 01:25:59;;;;;;;7.50;1.58;;;17.70;99.90;;;;;;5024608;28;20736;-56
2023/09/19 01:28:36;;;;;;;3.20;1.35;;;17.70;99.90;;;;;;5013414;28;20207;-57
2023/09/19 01:31:10;;;;;;;6.25;1.63;;;17.70;99.90;;;;;;5022112;28;20266;-58
2023/09/19 01:33:59;;;;;;;2.97;1.30;;;17.70;99.90;;;;;;5033505;28;20206;-57
2023/09/19 01:36:30;;;;;;;7.15;1.35;;;17.70;99.90;;;;;;5019296;28;20277;-58
2023/09/19 01:39:00;;;;;;;3.75;1.35;;;17.70;99.90;;;;;;5031053;28;20253;-56
2023/09/19 01:41:55;;;;;;;2.50;1.40;;;17.70;99.90;;;;;;5021120;28;20210;-56
2023/09/19 01:44:28;;;;;;;6.07;1.70;;;17.70;99.90;;;;;;5030054;28;20559;-56
2023/09/19 01:46:58;;;;;;;3.83;1.77;;;17.70;99.90;;;;;;5030295;28;20293;-58
2023/09/19 01:49:46;;;;;;;4.10;1.80;;;17.70;99.90;;;;;;5021983;28;20218;-56
2023/09/19 01:52:16;;;;;;;4.72;1.50;;;17.60;99.90;;;;;;5030006;28;20646;-58
2023/09/19 01:54:48;;;;;;;3.67;1.73;;;17.60;99.90;;;;;;5029982;28;20249;-56
2023/09/19 01:57:18;;;;;;;5.68;1.50;;;17.60;99.90;;;;;;5029960;28;20742;-57
2023/09/19 01:59:49;;;;;;;3.92;1.48;;;17.60;99.90;;;;;;5020454;28;20364;-56
2023/09/19 02:02:18;;;;;;;5.38;1.83;;;17.50;99.90;;;;;;5031482;28;20210;-57
2023/09/19 02:04:46;;;;;;;10.02;1.20;;;17.50;99.90;;;;;;5028834;28;20214;-57
2023/09/19 02:07:16;;;;;;;8.18;1.60;;;17.50;99.90;;;;;;5027260;28;20233;-57
2023/09/19 02:09:44;;;;;;;4.70;1.35;;;17.50;99.90;;;;;;5026420;28;20214;-57
2023/09/19 02:12:13;;;;;;;4.10;1.60;;;17.50;99.90;;;;;;5024777;28;20299;-58
2023/09/19 02:14:41;;;;;;;5.53;1.70;;;17.40;99.90;;;;;;5025142;28;20272;-57
2023/09/19 02:17:11;;;;;;;3.38;1.75;;;17.40;99.90;;;;;;5031702;28;20245;-58
2023/09/19 02:19:40;;;;;;;3.22;1.70;;;17.40;99.90;;;;;;5016412;28;20229;-56
2023/09/19 02:22:10;;;;;;;12.23;1.90;;;17.30;99.90;;;;;;5029269;28;20220;-58
2023/09/19 02:24:38;;;;;;;3.20;1.40;;;17.30;99.90;;;;;;5027317;28;20229;-56
2023/09/19 02:27:07;;;;;;;6.20;1.48;;;17.30;99.90;;;;;;5024343;28;20253;-57
2023/09/19 02:29:35;;;;;;;4.35;1.63;;;17.30;99.90;;;;;;5026400;28;20222;-57
2023/09/19 02:32:03;;;;;;;1.50;1.30;;;17.20;99.90;;;;;;5025825;28;20202;-58
2023/09/19 02:34:32;;;;;;;2.75;1.40;;;17.20;99.90;;;;;;5027433;28;20206;-56
2023/09/19 02:37:04;;;;;;;3.92;1.85;;;17.20;99.90;;;;;;5029565;28;20213;-57
2023/09/19 02:39:32;;;;;;;2.13;1.52;;;17.10;99.90;;;;;;5025942;28;20253;-56
2023/09/19 02:42:00;;;;;;;1.67;1.55;;;17.10;99.90;;;;;;5029464;28;20305;-56
2023/09/19 02:44:28;;;;;;;8.02;1.65;;;17.10;99.90;;;;;;5031177;28;20233;-58
2023/09/19 02:46:57;;;;;;;7.88;1.75;;;17.10;99.90;;;;;;5032194;28;20277;-57
2023/09/19 02:49:25;;;;;;;4.20;1.70;;;17.00;99.90;;;;;;5024792;28;20226;-57
2023/09/19 02:51:53;;;;;;;4.50;1.80;;;17.00;99.90;;;;;;5025827;28;20217;-56
2023/09/19 02:54:23;;;;;;;3.20;1.50;;;17.00;99.90;;;;;;5023110;28;20261;-58
2023/09/19 02:56:51;;;;;;;5.90;1.77;;;17.00;99.90;;;;;;5032061;28;20237;-56
2023/09/19 02:59:19;;;;;;;6.90;1.88;;;16.90;99.90;;;;;;5020324;28;20218;-57
2023/09/19 03:01:47;;;;;;;5.22;1.70;;;16.90;99.90;;;;;;5020310;28;20280;-56
2023/09/19 03:04:19;;;;;;;5.05;1.70;;;16.90;99.90;;;;;;5021490;28;20691;-57
2023/09/19 03:06:51;;;;;;;6.93;2.22;;;16.90;99.90;;;;;;5023730;28;20202;-58
2023/09/19 03:09:19;;;;;;;3.33;1.73;;;16.80;99.90;;;;;;5022758;28;20226;-56
2023/09/19 03:11:48;;;;;;;6.50;1.83;;;16.80;99.90;;;;;;5020286;28;20203;-56
2023/09/19 03:14:17;;;;;;;3.33;1.52;;;16.80;99.90;;;;;;5021522;28;20211;-57
2023/09/19 03:16:45;;;;;;;4.75;2.08;;;16.70;99.90;;;;;;5023793;28;20248;-56
2023/09/19 03:19:15;;;;;;;9.43;1.98;;;16.70;99.90;;;;;;5021709;28;20199;-57
2023/09/19 03:21:43;;;;;;;2.92;1.73;;;16.70;99.90;;;;;;5026956;28;20227;-56
2023/09/19 03:24:11;;;;;;;4.72;1.65;;;16.80;99.90;;;;;;5020102;28;20622;-57
2023/09/19 03:26:39;;;;;;;4.88;1.58;;;16.70;99.90;;;;;;5022511;28;20289;-56
2023/09/19 03:29:09;;;;;;;2.15;1.58;;;16.70;99.90;;;;;;5023776;28;20300;-57
2023/09/19 03:31:37;;;;;;;3.80;1.80;;;16.70;99.90;;;;;;5017556;28;20260;-57
2023/09/19 03:34:06;;;;;;;4.32;1.83;;;16.60;99.90;;;;;;5023346;28;20214;-56
2023/09/19 03:36:34;;;;;;;5.22;1.70;;;16.60;99.90;;;;;;5022656;28;20234;-59
2023/09/19 03:39:04;;;;;;;3.58;2.00;;;16.60;99.90;;;;;;5023016;28;20213;-57
2023/09/19 03:41:33;;;;;;;4.90;1.77;;;16.50;99.90;;;;;;5020037;28;20222;-57
2023/09/19 03:44:01;;;;;;;2.88;1.55;;;16.50;99.90;;;;;;5020239;28;20302;-56
2023/09/19 03:46:32;;;;;;;4.05;1.65;;;16.50;99.90;;;;;;5022135;28;20672;-56
2023/09/19 03:49:00;;;;;;;4.97;1.50;;;16.50;99.90;;;;;;5023190;28;20207;-57
2023/09/19 03:51:28;;;;;;;5.28;1.63;;;16.50;99.90;;;;;;5020796;28;20202;-57
2023/09/19 03:53:56;;;;;;;5.15;2.03;;;16.50;99.90;;;;;;5019456;28;20313;-56
2023/09/19 03:56:23;;;;;;;3.13;1.65;;;16.40;99.90;;;;;;5021240;28;20679;-55
2023/09/19 03:58:51;;;;;;;13.05;1.98;;;16.40;99.90;;;;;;5022892;28;20333;-57
2023/09/19 04:01:19;;;;;;;5.75;1.58;;;16.40;99.90;;;;;;5021854;28;20233;-57
2023/09/19 04:03:50;;;;;;;3.90;1.52;;;16.40;99.90;;;;;;5019585;28;20207;-56
2023/09/19 04:06:18;;;;;;;2.47;1.30;;;16.30;99.90;;;;;;5019720;28;20660;-57
2023/09/19 04:08:47;;;;;;;4.60;1.70;;;16.30;99.90;;;;;;5022860;28;20237;-57
2023/09/19 04:11:15;;;;;;;3.53;1.50;;;16.30;99.90;;;;;;5022691;28;20229;-58
2023/09/19 04:13:42;;;;;;;2.58;1.70;;;16.30;99.90;;;;;;5019560;28;20209;-56
2023/09/19 04:16:12;;;;;;;4.40;1.60;;;16.30;99.90;;;;;;5019720;28;20206;-56
2023/09/19 04:18:40;;;;;;;4.18;1.33;;;16.30;99.90;;;;;;5024842;28;20589;-56
2023/09/19 04:21:09;;;;;;;3.83;1.70;;;16.30;99.90;;;;;;5028482;28;20284;-57
2023/09/19 04:23:37;;;;;;;4.63;1.60;;;16.30;99.90;;;;;;5018281;23;20733;-54
2023/09/19 04:26:05;;;;;;;3.95;1.60;;;16.30;99.90;;;;;;5011547;28;20290;-53
2023/09/19 04:28:34;;;;;;;4.63;1.77;;;16.30;99.90;;;;;;5011156;28;20250;-57
2023/09/19 04:31:02;;;;;;;2.80;1.42;;;16.30;99.90;;;;;;5010430;28;20557;-57
2023/09/19 04:33:30;;;;;;;4.88;1.83;;;16.40;99.90;;;;;;5009712;28;20266;-56
2023/09/19 04:35:58;;;;;;;2.45;1.40;;;16.40;99.90;;;;;;5009281;28;20214;-56
2023/09/19 04:38:43;;;;;;;6.70;1.60;;;16.40;99.90;;;;;;5004713;28;20206;-56
2023/09/19 04:41:14;;;;;;;5.15;1.35;;;16.40;99.90;;;;;;5008932;28;20321;-59
2023/09/19 04:43:42;;;;;;;5.40;1.38;;;16.40;99.90;;;;;;5010087;28;20669;-54
2023/09/19 04:46:14;;;;;;;4.60;1.30;;;16.40;99.90;;;;;;5009074;28;20203;-55
2023/09/19 04:48:42;;;;;;;6.82;1.30;;;16.40;99.90;;;;;;5004624;28;20210;-57
2023/09/19 04:51:10;;;;;;;4.00;1.50;;;16.40;99.90;;;;;;5010079;28;20266;-57
2023/09/19 04:53:38;;;;;;;3.50;1.50;;;16.40;99.90;;;;;;5010497;28;20354;-54
2023/09/19 04:56:08;;;;;;;5.93;1.90;;;16.30;99.90;;;;;;5010794;28;20210;-54
2023/09/19 04:58:36;;;;;;;2.60;1.55;;;16.30;99.90;;;;;;5010699;28;20238;-56
2023/09/19 05:01:04;;;;;;;4.10;2.05;;;16.30;99.90;;;;;;5011068;28;20230;-56
2023/09/19 05:03:32;;;;;;;5.53;1.75;;;16.30;99.90;;;;;;5010927;28;20285;-59
2023/09/19 05:06:00;;;;;;;7.38;2.10;;;16.30;99.90;;;;;;5005802;28;20250;-54
2023/09/19 05:08:28;;;;;;;3.83;1.52;;;16.30;99.90;;;;;;5008719;28;20786;-54
2023/09/19 05:10:56;;;;;;;2.90;1.55;;;16.30;99.90;;;;;;5010691;28;20206;-54
2023/09/19 05:13:27;;;;;;;1.73;1.40;;;16.30;99.90;;;;;;5007487;28;20678;-54
2023/09/19 05:15:55;;;;;;;3.50;1.40;;;16.20;99.90;;;;;;4999494;28;20212;-56
2023/09/19 05:18:23;;;;;;;2.35;1.55;;;16.20;99.90;;;;;;5004192;28;20207;-56
2023/09/19 05:20:50;;;;;;;3.50;1.20;;;16.20;99.90;;;;;;5017363;28;20313;-58
2023/09/19 05:23:21;;;;;;;3.53;1.40;;;16.10;99.90;;;;;;5013383;28;20265;-59
2023/09/19 05:25:49;;;;;;;7.78;1.63;;;16.10;99.90;;;;;;5014346;28;20261;-57
2023/09/19 05:28:17;;;;;;;4.60;1.80;;;16.10;99.90;;;;;;5013866;28;20222;-65
2023/09/19 05:30:47;;;;;;;2.15;1.25;;;16.10;99.90;;;;;;5014477;28;20203;-57
2023/09/19 05:33:18;;;;;;;2.63;1.50;;;16.10;99.90;;;;;;5014049;28;20235;-56
2023/09/19 05:35:47;;;;;;;4.82;1.70;;;16.10;99.90;;;;;;5006453;28;20210;-55
2023/09/19 05:38:18;;;;;;;3.53;1.60;;;16.00;99.90;;;;;;5013662;28;20277;-58
2023/09/19 05:40:46;;;;;;;4.82;1.60;;;16.00;99.90;;;;;;5014187;28;20218;-57
2023/09/19 05:43:15;;;;;;;6.68;2.30;;;16.00;99.90;;;;;;5013663;28;20235;-56
2023/09/19 05:45:42;;;;;;;2.55;2.15;;;16.00;99.90;;;;;;5013948;28;20246;-56
2023/09/19 05:48:13;;;;;;;5.07;1.98;;;16.00;99.90;;;;;;5013060;28;20290;-56
2023/09/19 05:50:41;;;;;;;3.03;1.90;;;16.00;99.90;;;;;;5013703;28;20215;-55
2023/09/19 05:53:11;;;;;;;7.97;2.45;;;16.10;99.90;;;;;;5013634;28;20227;-55
2023/09/19 05:55:39;;;;;;;6.53;2.50;;;16.10;99.90;;;;;;5013894;28;20249;-56
2023/09/19 05:58:08;;;;;;;5.10;2.00;;;16.10;99.90;;;;;;5018540;28;20203;-57
2023/09/19 06:00:36;;;;;;;4.15;2.63;;;16.10;99.90;;;;;;5013493;28;20302;-56
2023/09/19 06:03:06;;;;;;;4.63;2.35;;;16.20;99.90;;;;;;5012926;28;20243;-56
2023/09/19 06:05:36;;;;;;;4.28;2.35;;;16.20;99.90;;;;;;5013590;28;20207;-56
2023/09/19 06:08:07;;;;;;;4.07;2.25;;;16.20;99.90;;;;;;5013046;28;20749;-56
2023/09/19 06:10:35;;;;;;;5.22;2.85;;;16.20;99.90;;;;;;5013650;28;20603;-57
2023/09/19 06:13:05;;;;;;;6.35;3.00;;;16.20;99.90;;;;;;5013098;28;20285;-57
2023/09/19 06:15:36;;;;;;;7.18;2.85;;;16.30;99.90;;;;;;5013253;28;20286;-57
2023/09/19 06:18:05;;;;;;;9.13;2.78;;;16.30;99.90;;;;;;5013106;28;20207;-57
2023/09/19 06:20:34;;;;;;;10.75;3.05;;;16.40;99.90;;;;;;5016539;28;20656;-55
2023/09/19 06:23:03;;;;;;;5.38;2.60;;;16.40;99.90;;;;;;5012632;28;20231;-59
2023/09/19 06:25:31;;;;;;;11.60;2.92;;;16.40;99.90;;;;;;5011126;28;20289;-55
2023/09/19 06:27:59;;;;;;;4.50;2.47;;;16.40;99.90;;;;;;5011987;28;20923;-59
2023/09/19 06:30:29;;;;;;;9.95;2.95;;;16.50;99.90;;;;;;5013119;28;20293;-55
2023/09/19 06:32:57;;;;;;;6.35;2.60;;;16.50;99.90;;;;;;5012812;28;20276;-58
2023/09/19 06:35:26;;;;;;;5.00;2.35;;;16.50;99.90;;;;;;5012923;28;20211;-56
2023/09/19 06:37:57;;;;;;;8.07;1.88;;;16.60;99.90;;;;;;5012574;28;20206;-55
2023/09/19 06:40:28;;;;;;;4.88;2.13;;;16.60;99.90;;;;;;5012550;28;20683;-56
2023/09/19 06:42:56;;;;;;;5.20;1.80;;;16.60;99.90;;;;;;5012402;28;20886;-55
2023/09/19 06:45:26;;;;;;;5.13;2.35;;;16.60;99.90;;;;;;5012643;28;20210;-58
2023/09/19 06:47:57;;;;;;;3.33;1.83;;;16.70;99.90;;;;;;5011614;28;20211;-57
2023/09/19 06:50:26;;;;;;;5.47;2.15;;;16.70;99.90;;;;;;5012475;28;20213;-57
2023/09/19 06:52:57;;;;;;;3.95;1.90;;;16.80;99.90;;;;;;5010668;28;20317;-58
2023/09/19 06:55:27;;;;;;;5.55;1.92;;;16.80;99.90;;;;;;5012948;28;20210;-56
2023/09/19 06:57:56;;;;;;;3.13;1.92;;;16.90;99.90;;;;;;5012227;28;20277;-58
2023/09/19 07:00:25;;;;;;;6.60;2.30;;;16.90;99.90;;;;;;5012466;28;20258;-55
2023/09/19 07:02:58;;;;;;;2.35;1.58;;;16.90;99.90;;;;;;5011989;28;20238;-55
2023/09/19 07:05:27;;;;;;;4.88;1.80;;;17.00;99.90;;;;;;5009515;28;20678;-57
2023/09/19 07:07:55;;;;;;;3.95;1.75;;;17.10;99.90;;;;;;5012386;28;20215;-55
2023/09/19 07:10:25;;;;;;;6.95;1.90;;;17.10;99.90;;;;;;5012493;28;20242;-56
2023/09/19 07:12:58;;;;;;;4.00;1.73;;;17.10;99.90;;;;;;5011727;28;20258;-55
2023/09/19 07:15:26;;;;;;;7.18;1.98;;;17.10;99.90;;;;;;5009482;28;20257;-55
2023/09/19 07:17:55;;;;;;;6.05;1.90;;;17.20;99.90;;;;;;5011923;28;20211;-59
2023/09/19 07:20:26;;;;;;;8.02;1.48;;;17.20;99.90;;;;;;5015375;28;20234;-58
2023/09/19 07:22:55;;;;;;;8.23;1.48;;;17.20;99.90;;;;;;5011765;28;20234;-58
2023/09/19 07:25:23;;;;;;;2.22;1.42;;;17.30;99.90;;;;;;5008864;28;20594;-59
2023/09/19 07:27:52;;;;;;;6.55;1.60;;;17.30;99.90;;;;;;5007049;28;20210;-61
2023/09/19 07:30:21;;;;;;;5.70;1.30;;;17.30;99.90;;;;;;5010759;28;20238;-60
2023/09/19 07:32:49;;;;;;;4.65;1.33;;;17.30;99.90;;;;;;5010956;28;20254;-61
2023/09/19 07:35:18;;;;;;;1.33;0.82;;;17.40;99.90;;;;;;5011421;28;20293;-61
2023/09/19 07:37:49;;;;;;;3.90;1.17;;;17.40;99.90;;;;;;5011412;28;20203;-60
2023/09/19 07:40:18;;;;;;;4.95;1.30;;;17.40;99.90;;;;;;5011355;28;20268;-60
2023/09/19 07:42:46;;;;;;;8.55;1.40;;;17.50;99.90;;;;;;5011115;28;20259;-61
2023/09/19 07:45:14;;;;;;;3.60;1.23;;;17.50;99.90;;;;;;5011064;28;20211;-60
2023/09/19 07:47:46;;;;;;;5.00;1.42;;;17.50;99.90;;;;;;5010853;28;20199;-61
2023/09/19 07:50:16;;;;;;;3.63;1.30;;;17.60;99.90;;;;;;5011870;28;20301;-60
2023/09/19 07:52:44;;;;;;;5.25;1.35;;;17.60;99.90;;;;;;5011544;28;20288;-60
2023/09/19 07:55:17;;;;;;;2.58;1.33;;;17.70;99.90;;;;;;5011749;28;20587;-58
2023/09/19 07:57:46;;;;;;;5.30;1.13;;;17.70;99.90;;;;;;5011517;28;20219;-58
2023/09/19 08:00:15;;;;;;;4.07;1.15;;;17.70;99.90;;;;;;5011787;28;20295;-57
2023/09/19 08:02:43;;;;;;;4.50;1.35;;;17.70;99.90;;;;;;5011444;28;20239;-59
2023/09/19 08:05:16;;;;;;;3.90;1.33;;;17.80;99.90;;;;;;5011791;28;20210;-58
2023/09/19 08:07:47;;;;;;;3.22;1.00;;;17.80;99.90;;;;;;5011281;28;20684;-58
2023/09/19 08:10:16;;;;;;;5.00;1.58;;;17.90;99.90;;;;;;5011670;28;20568;-59
2023/09/19 08:12:46;;;;;;;3.60;1.10;;;17.90;99.90;;;;;;5011177;28;20231;-59
2023/09/19 08:15:15;;;;;;;3.17;1.40;;;17.90;99.90;;;;;;5011626;28;20206;-58
2023/09/19 08:17:43;;;;;;;4.30;1.40;;;17.90;99.90;;;;;;5011331;28;20210;-58
2023/09/19 08:20:16;;;;;;;3.63;1.42;;;17.90;99.90;;;;;;5014652;28;20221;-58
2023/09/19 08:22:48;;;;;;;4.20;1.30;;;17.90;99.90;;;;;;5010723;28;20238;-59
2023/09/19 08:25:18;;;;;;;2.05;1.13;;;17.80;99.90;;;;;;5011661;28;20210;-58
2023/09/19 08:27:48;;;;;;;6.82;1.65;;;17.90;99.90;;;;;;5011015;28;20206;-58
2023/09/19 08:30:16;;;;;;;5.75;1.75;;;18.00;99.90;;;;;;5011626;28;20218;-59
2023/09/19 08:32:43;;;;;;;2.92;1.50;;;18.10;99.90;;;;;;5010762;28;20254;-58
2023/09/19 08:35:11;;;;;;;2.65;1.20;;;18.20;99.90;;;;;;5011476;28;20215;-58
2023/09/19 08:37:39;;;;;;;4.80;1.50;;;18.30;99.90;;;;;;5011067;28;20214;-58
2023/09/19 08:40:10;;;;;;;3.88;1.40;;;18.50;99.90;;;;;;5011229;28;20241;-59
2023/09/19 08:42:50;;;;;;;8.05;2.00;;;18.50;99.90;;;;;;5010680;28;20265;-58
2023/09/19 08:45:18;;;;;;;4.65;1.40;;;18.50;99.90;;;;;;5010973;28;20206;-57
2023/09/19 08:47:47;;;;;;;4.20;1.80;;;18.60;99.90;;;;;;5010616;28;20211;-58
2023/09/19 08:50:19;;;;;;;7.55;1.85;;;18.60;99.90;;;;;;5011337;28;20269;-58
2023/09/19 08:52:48;;;;;;;4.75;1.45;;;18.70;99.90;;;;;;5014422;28;20231;-58
2023/09/19 08:55:21;;;;;;;7.88;1.92;;;18.80;99.90;;;;;;5015027;28;20269;-59
2023/09/19 08:57:50;;;;;;;2.80;1.40;;;18.90;99.90;;;;;;5014199;28;20294;-58
2023/09/19 09:00:20;;;;;;;6.38;1.50;;;18.90;99.90;;;;;;5006939;28;20242;-59
2023/09/19 09:02:49;;;;;;;3.75;1.33;;;19.00;99.90;;;;;;5013537;28;20270;-59
2023/09/19 09:05:22;;;;;;;3.13;1.73;;;19.10;99.90;;;;;;5013146;28;20297;-59
2023/09/19 09:07:51;;;;;;;2.42;1.73;;;19.20;99.90;;;;;;5013780;28;20199;-60
2023/09/19 09:10:22;;;;;;;3.80;1.48;;;19.20;99.90;;;;;;5014299;28;20602;-59
2023/09/19 09:12:51;;;;;;;5.28;1.67;;;19.20;99.90;;;;;;5014251;28;20223;-60
2023/09/19 09:15:22;;;;;;;3.58;1.42;;;19.20;99.90;;;;;;5014196;28;20684;-60
2023/09/19 09:17:50;;;;;;;7.43;1.63;;;19.20;99.90;;;;;;5014152;28;20211;-60
2023/09/19 09:20:18;;;;;;;3.15;1.40;;;19.30;99.90;;;;;;5016181;28;20961;-60
2023/09/19 09:22:52;;;;;;;6.82;1.73;;;19.30;99.90;;;;;;5013353;28;20235;-60
2023/09/19 09:25:23;;;;;;;4.28;1.40;;;19.30;99.90;;;;;;5012434;28;20210;-58
2023/09/19 09:28:01;;;;;;;6.68;1.83;;;19.40;99.90;;;;;;5012873;28;20268;-59
2023/09/19 09:30:36;;;;;;;5.88;1.80;;;19.40;99.90;;;;;;5014366;28;20210;-59
2023/09/19 09:33:14;;;;;;;5.28;1.60;;;19.40;99.90;;;;;;5007163;28;20226;-59
2023/09/19 09:35:53;;;;;;;4.18;1.65;;;19.50;99.90;;;;;;5013799;28;20202;-60
2023/09/19 09:38:25;;;;;;;6.38;1.83;;;19.60;99.90;;;;;;5014040;28;20261;-59
2023/09/19 09:41:00;;;;;;;5.43;1.70;;;19.70;99.90;;;;;;5014343;28;20206;-56
2023/09/19 09:43:29;;;;;;;7.35;1.88;;;19.80;99.90;;;;;;5010171;28;20226;-59
2023/09/19 09:46:54;;;;;;;6.70;1.65;;;20.00;99.90;;;;;;5005725;28;20242;-59
2023/09/19 09:49:18;;;;;;;7.47;1.70;;;20.20;99.90;;;;;;5013649;28;20206;-59
2023/09/19 09:51:57;;;;;;;8.68;1.80;;;20.30;99.90;;;;;;5013888;28;20285;-59
2023/09/19 09:54:27;;;;;;;5.30;1.85;;;20.40;99.90;;;;;;5013794;28;20223;-59
2023/09/19 09:56:59;;;;;;;5.32;1.90;;;20.40;99.90;;;;;;5013533;28;20738;-60
2023/09/19 09:59:47;;;;;;;8.15;1.90;;;20.60;99.90;;;;;;5009723;28;20272;-58
2023/09/19 10:02:20;;;;;;;8.70;1.77;;;20.70;99.90;;;;;;5007311;28;20294;-60
2023/09/19 10:04:58;;;;;;;8.10;1.77;;;20.80;99.90;;;;;;5012167;28;20227;-60
2023/09/19 10:07:31;;;;;;;7.68;2.00;;;21.00;99.90;;;;;;5009044;28;20207;-60
2023/09/19 10:10:09;;;;;;;4.90;1.75;;;21.10;99.90;;;;;;5006454;28;20234;-60
2023/09/19 10:12:40;;;;;;;6.10;1.70;;;21.30;99.90;;;;;;5013157;28;20230;-60
2023/09/19 10:15:10;;;;;;;5.57;1.83;;;21.60;99.90;;;;;;5013419;28;20637;-59
2023/09/19 10:17:38;;;;;;;7.63;1.88;;;21.80;99.90;;;;;;5013076;28;20282;-59
2023/09/19 10:20:18;;;;;;;5.20;1.65;;;22.00;99.90;;;;;;5016783;28;20264;-60
2023/09/19 10:22:56;;;;;;;6.47;1.73;;;22.10;99.90;;;;;;5036360;23;20246;-63
2023/09/19 10:25:30;;;;;;;6.15;1.75;;;22.20;99.90;;;;;;5024725;28;20875;-63
2023/09/19 10:28:02;;;;;;;8.25;1.80;;;22.40;99.90;;;;;;5032543;28;20202;-63
2023/09/19 10:30:32;;;;;;;7.88;2.17;;;22.60;99.90;;;;;;5033818;28;20206;-63
2023/09/19 10:33:02;;;;;;;6.35;1.70;;;22.70;99.90;;;;;;5030320;28;20308;-63
2023/09/19 10:35:30;;;;;;;5.82;1.65;;;23.00;99.90;;;;;;5030003;28;20194;-63
2023/09/19 10:38:00;;;;;;;7.75;2.00;;;23.20;99.90;;;;;;5027043;28;20206;-63
2023/09/19 10:40:30;;;;;;;4.60;1.80;;;23.50;99.90;;;;;;5027913;28;20206;-63
2023/09/19 10:43:05;;;;;;;6.05;1.92;;;23.40;99.90;;;;;;5026819;28;20249;-64
2023/09/19 10:45:33;;;;;;;6.40;1.58;;;23.40;99.90;;;;;;5025987;28;20244;-64
2023/09/19 10:48:02;;;;;;;7.40;1.90;;;23.80;99.90;;;;;;5018947;28;20659;-64
2023/09/19 10:50:33;;;;;;;6.68;2.00;;;23.90;99.90;;;;;;5027398;28;20206;-62
2023/09/19 10:53:04;;;;;;;8.85;1.75;;;24.10;99.90;;;;;;5029198;28;20313;-62
2023/09/19 10:55:36;;;;;;;6.57;1.85;;;24.30;99.90;;;;;;5024072;28;20202;-62
2023/09/19 10:58:14;;;;;;;7.45;1.70;;;24.70;99.90;;;;;;5026865;28;20213;-62
2023/09/19 11:00:53;;;;;;;5.15;1.80;;;24.90;99.90;;;;;;5026878;28;20691;-55
2023/09/19 11:03:23;;;;;;;8.25;2.20;;;25.40;99.90;;;;;;5023324;28;20790;-53
2023/09/19 11:06:06;;;;;;;7.22;1.60;;;25.50;99.90;;;;;;5025482;28;20730;-53
2023/09/19 11:08:53;;;;;;;4.15;1.90;;;25.60;99.90;;;;;;5026279;28;20280;-53
2023/09/19 11:11:40;;;;;;;5.75;2.03;;;25.50;99.90;;;;;;5028216;28;20203;-54
2023/09/19 11:14:44;;;;;;;6.13;2.05;;;25.70;99.90;;;;;;5018638;28;20253;-54
2023/09/19 11:17:46;;;;;;;7.97;2.08;;;25.80;99.90;;;;;;5029633;28;20215;-54
2023/09/19 11:23:25;;;;;;;2.45;1.30;;;25.80;99.90;;;;;;5027905;28;20508;-54
2023/09/19 11:25:54;;;;;;;5.95;1.83;;;26.00;99.90;;;;;;5025137;28;20234;-54
2023/09/19 11:28:31;;;;;;;6.82;1.88;;;26.20;99.90;;;;;;5025884;28;20206;-54
2023/09/19 11:31:01;;;;;;;6.65;1.70;;;26.40;99.90;;;;;;5025901;28;20217;-54
2023/09/19 11:33:31;;;;;;;4.60;2.03;;;26.60;99.90;;;;;;5022571;28;20326;-54
2023/09/19 11:36:03;;;;;;;3.42;1.70;;;26.60;99.40;;;;;;5025501;28;20205;-53
2023/09/19 11:39:07;;;;;;;4.40;1.30;;;26.40;98.40;;;;;;5028271;28;20205;-53
2023/09/19 11:41:39;;;;;;;7.95;2.13;;;26.40;98.40;;;;;;5034597;28;20205;-56
2023/09/19 11:44:36;;;;;;;9.13;2.40;;;26.30;98.80;;;;;;5033986;28;20309;-56
2023/09/19 11:47:05;;;;;;;3.20;1.40;;;26.40;97.80;;;;;;5030498;28;20238;-53
2023/09/19 11:49:34;;;;;;;5.07;1.90;;;26.30;97.20;;;;;;5022282;28;20206;-54
2023/09/19 11:52:05;;;;;;;5.75;1.23;;;26.20;96.90;;;;;;5025548;28;20212;-53
2023/09/19 11:54:33;;;;;;;3.35;1.52;;;26.20;97.50;;;;;;5025733;28;20273;-56
2023/09/19 11:57:02;;;;;;;4.40;1.55;;;26.30;96.30;;;;;;5032088;28;20221;-55
2023/09/19 11:59:31;;;;;;;3.20;1.50;;;26.40;96.10;;;;;;5021970;28;20213;-57
2023/09/19 12:02:02;;;;;;;4.75;1.75;;;26.50;96.30;;;;;;5039551;28;20234;-57
2023/09/19 12:04:37;;;;;;;3.67;1.52;;;26.60;96.20;;;;;;5031991;28;20230;-56
2023/09/19 12:07:10;;;;;;;4.00;1.70;;;26.80;96.20;;;;;;5030089;28;20201;-56
2023/09/19 12:09:40;;;;;;;5.10;1.63;;;27.20;95.80;;;;;;5021398;28;20285;-58
2023/09/19 12:12:09;;;;;;;4.80;1.83;;;27.40;95.60;;;;;;5023777;28;20245;-57
2023/09/19 12:14:36;;;;;;;1.85;1.30;;;27.50;93.80;;;;;;5025225;28;20257;-57
2023/09/19 12:17:04;;;;;;;2.42;1.50;;;27.50;92.10;;;;;;5027815;28;20201;-57
2023/09/19 12:19:33;;;;;;;5.15;1.38;;;27.20;92.00;;;;;;5024383;28;20237;-57
2023/09/19 12:22:04;;;;;;;4.88;1.50;;;27.30;92.00;;;;;;5026710;28;20693;-56
2023/09/19 12:24:34;;;;;;;4.50;1.70;;;27.00;91.70;;;;;;5023497;28;20226;-57
2023/09/19 12:27:05;;;;;;;4.47;1.80;;;27.00;91.10;;;;;;5026867;28;20198;-57
2023/09/19 12:29:42;;;;;;;3.83;1.30;;;26.90;90.90;;;;;;5025687;28;20555;-57
2023/09/19 12:32:11;;;;;;;4.05;1.50;;;27.10;91.60;;;;;;5022393;28;20580;-57
2023/09/19 12:34:42;;;;;;;4.22;1.75;;;27.40;91.20;;;;;;5028889;28;20249;-58
2023/09/19 12:37:12;;;;;;;3.28;1.45;;;27.60;90.70;;;;;;5031678;28;20198;-55
2023/09/19 12:39:42;;;;;;;6.82;1.60;;;27.60;90.40;;;;;;5025563;28;20202;-55
2023/09/19 12:42:11;;;;;;;3.03;1.60;;;27.60;90.40;;;;;;5034787;28;20260;-57
2023/09/19 12:44:39;;;;;;;5.28;2.05;;;27.90;90.30;;;;;;5028296;28;20304;-57
2023/09/19 12:47:11;;;;;;;5.85;1.80;;;28.30;89.90;;;;;;5027037;28;20386;-58
2023/09/19 12:50:07;;;;;;;5.32;1.40;;;28.60;89.80;;;;;;5025514;28;20207;-58
2023/09/19 12:52:37;;;;;;;3.15;1.63;;;28.60;87.80;;;;;;5031599;28;20627;-57
2023/09/19 12:55:06;;;;;;;5.38;1.83;;;28.50;87.40;;;;;;5027364;28;20712;-58
2023/09/19 12:57:34;;;;;;;4.97;1.67;;;28.60;89.10;;;;;;5024661;28;20648;-56
2023/09/19 13:00:02;;;;;;;4.10;2.35;;;28.70;86.90;;;;;;5029163;28;20826;-58
2023/09/19 13:02:30;;;;;;;6.50;2.50;;;28.70;85.90;;;;;;5035952;28;20210;-57
2023/09/19 13:05:04;;;;;;;5.57;1.77;;;28.30;86.60;;;;;;5031763;28;21146;-56
2023/09/19 13:07:46;;;;;;;4.03;1.70;;;28.00;88.30;;;;;;5032150;28;20206;-58